Joonas Kurits

Ampler Development Team

Information
Nationality Estonia
Born15th April 2002 (19)
UCI Ranking 1372

20212020201920182015

Ampler Development Team (Continental) UCI Ranking: 1372 Race days: 23 Distance: 3.011km
Date Pos GC Race CAT UCI
2021-08-02 02.08 DNF Kreiz Breizh Elites 2.2Show more
2021-07-25 25.07 DNF GP de Perenchies 1.2Show more
2021-07-20 20.07 DNF Etoile d'Or 2.NCShow more
2021-06-26 26.06 27 Solidarnosc Champions 2.2Show more
2021-06-12 12.06 10 CN EST/LAT/LTU RR-U23 CN3
2021-06-20 20.06 DNF CN EST/LAT/LTU RR CN
2021-06-17 17.06 4 CN Estonia ITT CN15
2021-06-06 06.06 78 - Course de la Paix (U23) 2.NCShow more
2021-06-12 12.06 7 CN Estonia RR-U23 CN5
2021-05-29 29.05 50 Tour of Estonia 2.1Show more
2021-05-18 18.05 1 Transtar Temposari 2 Etapp NE40
2021-05-05 05.05 2 Filter Temposari - 1. etapp NE30
2021-06-26 26.06 10 Solidarnosc Champions | Youth 2.2
2021-06-06 06.06 22 - Course de la Paix (U23) | Youth 2.NC
2021-05-29 29.05 10 Tour of Estonia | Youth 2.1
2021-06-26 26.06 20 Solidarnosc Champions | Points 2.2
2021-08-02 02.08 DNF Kreiz Breizh Elites | 4th stage 2.2
2021-08-01 01.08 104 102 Kreiz Breizh Elites | 3rd stage 2.2
2021-07-31 31.07 92 105 Kreiz Breizh Elites | 2nd stage 2.2
2021-07-30 30.07 4 133 Kreiz Breizh Elites | 1st stage | TTT 2.2
2021-07-20 20.07 DNF Etoile d'Or | 3rd stage 2.NC
2021-07-19 19.07 64 15 Etoile d'Or | 2nd stage 2.NC
2021-07-19 19.07 12 12 Etoile d'Or | 1st stage 2.NC
2021-06-26 26.06 11 27 Solidarnosc Champions | 5th stage 2.2
2021-06-25 25.06 15 27 Solidarnosc Champions | 4th stage 2.2
2021-06-24 24.06 79 36 Solidarnosc Champions | 3rd stage 2.2
2021-06-23 23.06 13 14 Solidarnosc Champions | 2nd stage 2.2
2021-06-23 23.06 7 9 Solidarnosc Champions | 1st stage 2.2
2021-06-06 06.06 81 78 Course de la Paix (U23) | 3rd stage 2.NC
2021-06-05 05.06 79 76 Course de la Paix (U23) | 2nd stage 2.NC
2021-06-04 04.06 56 36 Course de la Paix (U23) | 1st stage 2.NC
2021-06-03 03.06 43 43 Course de la Paix (U23) | Prologue 2.NC
2021-05-29 29.05 50 50 Tour of Estonia | 2nd stage 2.1
2021-05-28 28.05 38 38 Tour of Estonia | 1st stage 2.1